Airfield :
LOGIN :

Register | Disclaimer

   EN    FR    IT 

 










Legend :    VFR   Marginal VFR   IFR   Intensive IFR   Very Intensive IFR
Visi :
Ceiling :
>= 8 km
>= 3000ft
5 to 8 km
1000 to 3000 ft
1500m to 5 km
500 to 1000 ft
800 to 1500m
200 to 500 ft
< 800m
< 200 ft
Symbols :   Thunderstorms  Fog  Heavy snow  Heavy precipitations  Wind > 20 kt
SIGMETs :     Misc.  Thunderstorms  Icing  Turbulence  Mountain Waves  Volcanic Ashes






- Airport Elevation : 74 ft
- IATA code : LRH


LFBH - La Rochelle Ile de Ré

CURRENT METAR :
  • 302030Z AUTO 19009KT 9999 FEW018 BKN045 BKN120 17/14 Q1009 TEMPO 20015G30KT 2500 RA BKN010

EXPIRED METARs :
  • 302000Z AUTO 20009KT 9999 FEW017 BKN045 BKN130 17/14 Q1010 NOSIG
  • 301930Z AUTO 19009KT 9999 BKN018 BKN100 BKN130 17/14 Q1010 NOSIG
  • 301900Z AUTO 19009KT 9999 BKN019 17/14 Q1010 NOSIG
  • 301830Z AUTO 20010KT 9999 BKN021 BKN027 17/13 Q1010 NOSIG
  • 301800Z AUTO 20009KT 9999 BKN030 BKN200 17/13 Q1011 NOSIG

TAF TAF LFBH
Valid from the 30 at 18:00 until the 01 at 18:00 UTC


301700Z 3018/0118 22010KT 9999 BKN030
BECMG 3019/3021 5000 -RA
TEMPO 3022/0102 20015G30KT 2500 RA BKN010
BECMG 0102/0104 29010KT
TEMPO 0104/0109 28015G25KT 4000 -SHRA BKN020TCU
BECMG 0112/0114 21015KT
TEMPO 0114/0118 4000 -SHRA BKN025TCU
ATIS : +33 5 46 00 13 92



MET'MAP, your aeronautical weather chart ! - Copyright ORBIFLY December 2007 - Disclaimer

ORBIFLY MET'MAP TEAM :

Programming & Development : Alexandra Zaïnal
Concept & original design : Baudouin d'Aumeries
Assistance for programming : Marc-Olivier Méhu
Technical & hardware support : Manuel Goepfert

Contact : metmap@orbifly.com




SOURCES & CREDITS :

   NOAA